sensor_id;sensor_type;location;lat;lon;timestamp;temperature;humidity
70550;DHT22;58101;48.658;2.328;2023-04-30T00:01:55;12.20;99.90
70550;DHT22;58101;48.658;2.328;2023-04-30T00:04:21;12.20;99.90
70550;DHT22;58101;48.658;2.328;2023-04-30T00:06:46;12.10;99.90
70550;DHT22;58101;48.658;2.328;2023-04-30T00:09:12;12.10;99.90
70550;DHT22;58101;48.658;2.328;2023-04-30T00:11:38;12.10;99.90
70550;DHT22;58101;48.658;2.328;2023-04-30T00:14:03;12.20;99.90
70550;DHT22;58101;48.658;2.328;2023-04-30T00:16:29;12.10;99.90
70550;DHT22;58101;48.658;2.328;2023-04-30T00:18:54;12.10;99.90
70550;DHT22;58101;48.658;2.328;2023-04-30T00:21:20;12.10;99.90
70550;DHT22;58101;48.658;2.328;2023-04-30T00:23:45;12.00;99.90
70550;DHT22;58101;48.658;2.328;2023-04-30T00:26:11;11.90;99.90
70550;DHT22;58101;48.658;2.328;2023-04-30T00:28:37;12.00;99.90
70550;DHT22;58101;48.658;2.328;2023-04-30T00:31:02;11.90;99.90
70550;DHT22;58101;48.658;2.328;2023-04-30T00:33:31;11.90;99.90
70550;DHT22;58101;48.658;2.328;2023-04-30T00:35:57;11.80;99.90
70550;DHT22;58101;48.658;2.328;2023-04-30T00:38:22;11.70;99.90
70550;DHT22;58101;48.658;2.328;2023-04-30T00:40:48;11.70;99.90
70550;DHT22;58101;48.658;2.328;2023-04-30T00:43:14;11.70;99.90
70550;DHT22;58101;48.658;2.328;2023-04-30T00:45:43;11.50;99.90
70550;DHT22;58101;48.658;2.328;2023-04-30T00:48:08;11.50;99.90
70550;DHT22;58101;48.658;2.328;2023-04-30T00:50:35;11.40;99.90
70550;DHT22;58101;48.658;2.328;2023-04-30T00:53:01;11.40;99.90
70550;DHT22;58101;48.658;2.328;2023-04-30T00:55:27;11.40;99.90
70550;DHT22;58101;48.658;2.328;2023-04-30T00:57:53;11.30;99.90
70550;DHT22;58101;48.658;2.328;2023-04-30T01:00:19;11.30;99.90
70550;DHT22;58101;48.658;2.328;2023-04-30T01:02:46;11.20;99.90
70550;DHT22;58101;48.658;2.328;2023-04-30T01:05:12;11.20;99.90
70550;DHT22;58101;48.658;2.328;2023-04-30T01:07:38;11.10;99.90
70550;DHT22;58101;48.658;2.328;2023-04-30T01:10:10;11.00;99.90
70550;DHT22;58101;48.658;2.328;2023-04-30T01:12:58;11.00;99.90
70550;DHT22;58101;48.658;2.328;2023-04-30T01:15:42;11.00;99.90
70550;DHT22;58101;48.658;2.328;2023-04-30T01:18:38;10.90;99.90
70550;DHT22;58101;48.658;2.328;2023-04-30T01:21:07;10.90;99.90
70550;DHT22;58101;48.658;2.328;2023-04-30T01:26:58;10.80;99.90
70550;DHT22;58101;48.658;2.328;2023-04-30T01:29:31;10.70;99.90
70550;DHT22;58101;48.658;2.328;2023-04-30T01:31:59;10.70;99.90
70550;DHT22;58101;48.658;2.328;2023-04-30T01:34:26;10.60;99.90
70550;DHT22;58101;48.658;2.328;2023-04-30T01:42:04;10.60;99.90
70550;DHT22;58101;48.658;2.328;2023-04-30T01:53:02;10.50;99.90
70550;DHT22;58101;48.658;2.328;2023-04-30T01:55:35;10.60;99.90
70550;DHT22;58101;48.658;2.328;2023-04-30T01:58:06;10.50;99.90
70550;DHT22;58101;48.658;2.328;2023-04-30T02:00:34;10.40;99.90
70550;DHT22;58101;48.658;2.328;2023-04-30T02:03:00;10.50;99.90
70550;DHT22;58101;48.658;2.328;2023-04-30T02:05:26;10.40;99.90
70550;DHT22;58101;48.658;2.328;2023-04-30T02:07:52;10.30;99.90
70550;DHT22;58101;48.658;2.328;2023-04-30T02:10:20;10.30;99.90
70550;DHT22;58101;48.658;2.328;2023-04-30T02:12:46;10.30;99.90
70550;DHT22;58101;48.658;2.328;2023-04-30T02:15:12;10.30;99.90
70550;DHT22;58101;48.658;2.328;2023-04-30T02:17:37;10.30;99.90
70550;DHT22;58101;48.658;2.328;2023-04-30T02:20:03;10.30;99.90
70550;DHT22;58101;48.658;2.328;2023-04-30T02:22:29;10.30;99.90
70550;DHT22;58101;48.658;2.328;2023-04-30T02:24:55;10.40;99.90
70550;DHT22;58101;48.658;2.328;2023-04-30T02:27:23;10.50;99.90
70550;DHT22;58101;48.658;2.328;2023-04-30T02:29:49;10.40;99.90
70550;DHT22;58101;48.658;2.328;2023-04-30T02:32:15;10.40;99.90
70550;DHT22;58101;48.658;2.328;2023-04-30T02:34:41;10.40;99.90
70550;DHT22;58101;48.658;2.328;2023-04-30T02:37:07;10.30;99.90
70550;DHT22;58101;48.658;2.328;2023-04-30T02:39:33;10.30;99.90
70550;DHT22;58101;48.658;2.328;2023-04-30T02:41:59;10.40;99.90
70550;DHT22;58101;48.658;2.328;2023-04-30T02:44:25;10.30;99.90
70550;DHT22;58101;48.658;2.328;2023-04-30T02:46:51;10.30;99.90
70550;DHT22;58101;48.658;2.328;2023-04-30T02:49:16;10.40;99.90
70550;DHT22;58101;48.658;2.328;2023-04-30T02:51:42;10.30;99.90
70550;DHT22;58101;48.658;2.328;2023-04-30T02:54:08;10.30;99.90
70550;DHT22;58101;48.658;2.328;2023-04-30T02:56:34;10.30;99.90
70550;DHT22;58101;48.658;2.328;2023-04-30T02:59:00;10.30;99.90
70550;DHT22;58101;48.658;2.328;2023-04-30T03:01:26;10.30;99.90
70550;DHT22;58101;48.658;2.328;2023-04-30T03:03:52;10.30;99.90
70550;DHT22;58101;48.658;2.328;2023-04-30T03:06:18;10.30;99.90
70550;DHT22;58101;48.658;2.328;2023-04-30T03:08:43;10.30;99.90
70550;DHT22;58101;48.658;2.328;2023-04-30T03:11:09;10.40;99.90
70550;DHT22;58101;48.658;2.328;2023-04-30T03:13:34;10.30;99.90
70550;DHT22;58101;48.658;2.328;2023-04-30T03:16:01;10.30;99.90
70550;DHT22;58101;48.658;2.328;2023-04-30T03:18:29;10.20;99.90
70550;DHT22;58101;48.658;2.328;2023-04-30T03:20:55;10.20;99.90
70550;DHT22;58101;48.658;2.328;2023-04-30T03:23:22;10.20;99.90
70550;DHT22;58101;48.658;2.328;2023-04-30T03:25:48;10.20;99.90
70550;DHT22;58101;48.658;2.328;2023-04-30T03:28:13;10.20;99.90
70550;DHT22;58101;48.658;2.328;2023-04-30T03:30:40;10.20;99.90
70550;DHT22;58101;48.658;2.328;2023-04-30T03:33:06;10.20;99.90
70550;DHT22;58101;48.658;2.328;2023-04-30T03:35:32;10.30;99.90
70550;DHT22;58101;48.658;2.328;2023-04-30T03:37:59;10.10;99.90
70550;DHT22;58101;48.658;2.328;2023-04-30T03:40:24;10.10;99.90
70550;DHT22;58101;48.658;2.328;2023-04-30T03:42:50;10.10;99.90
70550;DHT22;58101;48.658;2.328;2023-04-30T03:45:16;10.20;99.90
70550;DHT22;58101;48.658;2.328;2023-04-30T03:47:42;10.00;99.90
70550;DHT22;58101;48.658;2.328;2023-04-30T03:50:08;9.90;99.90
70550;DHT22;58101;48.658;2.328;2023-04-30T03:52:34;10.00;99.90
70550;DHT22;58101;48.658;2.328;2023-04-30T03:55:02;10.00;99.90
70550;DHT22;58101;48.658;2.328;2023-04-30T03:57:27;10.00;99.90
70550;DHT22;58101;48.658;2.328;2023-04-30T03:59:53;9.90;99.90
70550;DHT22;58101;48.658;2.328;2023-04-30T04:02:19;9.90;99.90
70550;DHT22;58101;48.658;2.328;2023-04-30T04:04:46;9.90;99.90
70550;DHT22;58101;48.658;2.328;2023-04-30T04:07:11;9.80;99.90
70550;DHT22;58101;48.658;2.328;2023-04-30T04:09:37;9.80;99.90
70550;DHT22;58101;48.658;2.328;2023-04-30T04:12:03;9.80;99.90
70550;DHT22;58101;48.658;2.328;2023-04-30T04:14:29;9.80;99.90
70550;DHT22;58101;48.658;2.328;2023-04-30T04:16:55;9.80;99.90
70550;DHT22;58101;48.658;2.328;2023-04-30T04:19:22;9.80;99.90
70550;DHT22;58101;48.658;2.328;2023-04-30T04:21:48;9.70;99.90
70550;DHT22;58101;48.658;2.328;2023-04-30T04:24:14;9.80;99.90
70550;DHT22;58101;48.658;2.328;2023-04-30T04:26:39;9.90;99.90
70550;DHT22;58101;48.658;2.328;2023-04-30T04:29:09;9.80;99.90
70550;DHT22;58101;48.658;2.328;2023-04-30T04:31:35;9.80;99.90
70550;DHT22;58101;48.658;2.328;2023-04-30T04:34:02;9.80;99.90
70550;DHT22;58101;48.658;2.328;2023-04-30T04:36:29;9.80;99.90
70550;DHT22;58101;48.658;2.328;2023-04-30T04:38:56;9.80;99.90
70550;DHT22;58101;48.658;2.328;2023-04-30T04:41:22;9.80;99.90
70550;DHT22;58101;48.658;2.328;2023-04-30T04:43:48;9.80;99.90
70550;DHT22;58101;48.658;2.328;2023-04-30T04:46:15;9.70;99.90
70550;DHT22;58101;48.658;2.328;2023-04-30T04:48:41;9.70;99.90
70550;DHT22;58101;48.658;2.328;2023-04-30T04:51:08;9.70;99.90
70550;DHT22;58101;48.658;2.328;2023-04-30T04:53:34;9.60;99.90
70550;DHT22;58101;48.658;2.328;2023-04-30T04:56:00;9.60;99.90
70550;DHT22;58101;48.658;2.328;2023-04-30T04:58:26;9.70;99.90
70550;DHT22;58101;48.658;2.328;2023-04-30T05:00:52;9.60;99.90
70550;DHT22;58101;48.658;2.328;2023-04-30T05:03:18;9.60;99.90
70550;DHT22;58101;48.658;2.328;2023-04-30T05:05:45;9.60;99.90
70550;DHT22;58101;48.658;2.328;2023-04-30T05:08:11;9.60;99.90
70550;DHT22;58101;48.658;2.328;2023-04-30T05:10:37;9.60;99.90
70550;DHT22;58101;48.658;2.328;2023-04-30T05:13:02;9.60;99.90
70550;DHT22;58101;48.658;2.328;2023-04-30T05:15:28;9.60;99.90
70550;DHT22;58101;48.658;2.328;2023-04-30T05:17:54;9.60;99.90
70550;DHT22;58101;48.658;2.328;2023-04-30T05:20:19;9.70;99.90
70550;DHT22;58101;48.658;2.328;2023-04-30T05:22:45;9.70;99.90
70550;DHT22;58101;48.658;2.328;2023-04-30T05:25:11;9.70;99.90
70550;DHT22;58101;48.658;2.328;2023-04-30T05:27:36;9.70;99.90
70550;DHT22;58101;48.658;2.328;2023-04-30T05:30:02;9.80;99.90
70550;DHT22;58101;48.658;2.328;2023-04-30T05:32:28;9.80;99.90
70550;DHT22;58101;48.658;2.328;2023-04-30T05:34:54;9.80;99.90
70550;DHT22;58101;48.658;2.328;2023-04-30T05:37:20;9.90;99.90
70550;DHT22;58101;48.658;2.328;2023-04-30T05:39:47;9.90;99.90
70550;DHT22;58101;48.658;2.328;2023-04-30T05:42:13;10.00;99.90
70550;DHT22;58101;48.658;2.328;2023-04-30T05:44:39;10.00;99.90
70550;DHT22;58101;48.658;2.328;2023-04-30T05:47:05;10.10;99.90
70550;DHT22;58101;48.658;2.328;2023-04-30T05:49:31;10.10;99.90
70550;DHT22;58101;48.658;2.328;2023-04-30T05:51:56;10.10;99.90
70550;DHT22;58101;48.658;2.328;2023-04-30T05:54:22;10.20;99.90
70550;DHT22;58101;48.658;2.328;2023-04-30T05:56:48;10.30;99.90
70550;DHT22;58101;48.658;2.328;2023-04-30T05:59:13;10.30;99.90
70550;DHT22;58101;48.658;2.328;2023-04-30T06:01:39;10.30;99.90
70550;DHT22;58101;48.658;2.328;2023-04-30T06:04:04;10.60;99.90
70550;DHT22;58101;48.658;2.328;2023-04-30T06:06:30;10.50;99.90
70550;DHT22;58101;48.658;2.328;2023-04-30T06:08:56;10.60;99.90
70550;DHT22;58101;48.658;2.328;2023-04-30T06:11:22;10.60;99.90
70550;DHT22;58101;48.658;2.328;2023-04-30T06:13:50;10.80;99.90
70550;DHT22;58101;48.658;2.328;2023-04-30T06:16:16;10.80;99.90
70550;DHT22;58101;48.658;2.328;2023-04-30T06:18:41;10.90;99.90
70550;DHT22;58101;48.658;2.328;2023-04-30T06:21:07;11.00;99.90
70550;DHT22;58101;48.658;2.328;2023-04-30T06:23:32;11.10;99.90
70550;DHT22;58101;48.658;2.328;2023-04-30T06:25:58;11.30;99.90
70550;DHT22;58101;48.658;2.328;2023-04-30T06:28:24;11.40;99.90
70550;DHT22;58101;48.658;2.328;2023-04-30T06:30:50;11.60;99.90
70550;DHT22;58101;48.658;2.328;2023-04-30T06:33:16;11.60;99.90
70550;DHT22;58101;48.658;2.328;2023-04-30T06:35:42;11.80;99.90
70550;DHT22;58101;48.658;2.328;2023-04-30T06:38:08;11.90;99.90
70550;DHT22;58101;48.658;2.328;2023-04-30T06:40:34;12.00;99.90
70550;DHT22;58101;48.658;2.328;2023-04-30T06:42:59;12.10;99.90
70550;DHT22;58101;48.658;2.328;2023-04-30T06:45:25;12.30;99.90
70550;DHT22;58101;48.658;2.328;2023-04-30T06:47:51;12.40;99.90
70550;DHT22;58101;48.658;2.328;2023-04-30T06:50:17;12.50;99.90
70550;DHT22;58101;48.658;2.328;2023-04-30T06:52:43;12.60;99.90
70550;DHT22;58101;48.658;2.328;2023-04-30T06:55:09;12.60;99.90
70550;DHT22;58101;48.658;2.328;2023-04-30T06:57:35;12.70;99.90
70550;DHT22;58101;48.658;2.328;2023-04-30T07:00:05;12.80;99.90
70550;DHT22;58101;48.658;2.328;2023-04-30T07:02:32;12.90;99.90
70550;DHT22;58101;48.658;2.328;2023-04-30T07:04:57;13.00;99.90
70550;DHT22;58101;48.658;2.328;2023-04-30T07:07:23;13.10;99.90
70550;DHT22;58101;48.658;2.328;2023-04-30T07:09:48;13.30;99.90
70550;DHT22;58101;48.658;2.328;2023-04-30T07:12:15;13.50;99.90
70550;DHT22;58101;48.658;2.328;2023-04-30T07:14:41;13.50;99.90
70550;DHT22;58101;48.658;2.328;2023-04-30T07:17:06;13.60;99.90
70550;DHT22;58101;48.658;2.328;2023-04-30T07:19:32;13.60;99.90
70550;DHT22;58101;48.658;2.328;2023-04-30T07:21:58;13.70;99.90
70550;DHT22;58101;48.658;2.328;2023-04-30T07:24:26;13.90;99.90
70550;DHT22;58101;48.658;2.328;2023-04-30T07:26:52;14.00;99.90
70550;DHT22;58101;48.658;2.328;2023-04-30T07:29:17;14.20;99.90
70550;DHT22;58101;48.658;2.328;2023-04-30T07:31:43;14.40;99.90
70550;DHT22;58101;48.658;2.328;2023-04-30T07:37:42;14.60;99.90
70550;DHT22;58101;48.658;2.328;2023-04-30T07:40:08;14.70;99.90
70550;DHT22;58101;48.658;2.328;2023-04-30T07:42:39;14.80;99.90
70550;DHT22;58101;48.658;2.328;2023-04-30T07:45:28;15.00;99.90
70550;DHT22;58101;48.658;2.328;2023-04-30T07:47:58;15.00;99.90
70550;DHT22;58101;48.658;2.328;2023-04-30T07:50:24;15.00;99.30
70550;DHT22;58101;48.658;2.328;2023-04-30T07:52:50;15.20;99.90
70550;DHT22;58101;48.658;2.328;2023-04-30T07:55:15;15.30;99.90
70550;DHT22;58101;48.658;2.328;2023-04-30T07:57:41;15.40;98.90
70550;DHT22;58101;48.658;2.328;2023-04-30T08:00:07;15.50;99.10
70550;DHT22;58101;48.658;2.328;2023-04-30T08:02:33;15.60;95.70
70550;DHT22;58101;48.658;2.328;2023-04-30T08:05:17;15.70;96.70
70550;DHT22;58101;48.658;2.328;2023-04-30T08:07:43;15.80;96.80
70550;DHT22;58101;48.658;2.328;2023-04-30T08:10:11;16.00;96.20
70550;DHT22;58101;48.658;2.328;2023-04-30T08:12:37;16.10;94.90
70550;DHT22;58101;48.658;2.328;2023-04-30T08:15:05;16.30;93.50
70550;DHT22;58101;48.658;2.328;2023-04-30T08:17:32;16.40;93.90
70550;DHT22;58101;48.658;2.328;2023-04-30T08:19:59;16.60;91.60
70550;DHT22;58101;48.658;2.328;2023-04-30T08:22:25;16.70;90.00
70550;DHT22;58101;48.658;2.328;2023-04-30T08:24:51;16.80;88.20
70550;DHT22;58101;48.658;2.328;2023-04-30T08:27:17;16.90;87.90
70550;DHT22;58101;48.658;2.328;2023-04-30T08:29:43;17.10;86.50
70550;DHT22;58101;48.658;2.328;2023-04-30T08:32:08;17.20;82.70
70550;DHT22;58101;48.658;2.328;2023-04-30T08:34:34;17.20;80.10
70550;DHT22;58101;48.658;2.328;2023-04-30T08:37:00;17.40;79.30
70550;DHT22;58101;48.658;2.328;2023-04-30T08:39:26;17.50;79.80
70550;DHT22;58101;48.658;2.328;2023-04-30T08:41:56;17.50;76.30
70550;DHT22;58101;48.658;2.328;2023-04-30T08:44:26;17.70;76.10
70550;DHT22;58101;48.658;2.328;2023-04-30T08:46:54;17.90;73.40
70550;DHT22;58101;48.658;2.328;2023-04-30T08:49:23;18.00;73.00
70550;DHT22;58101;48.658;2.328;2023-04-30T08:51:50;18.30;73.70
70550;DHT22;58101;48.658;2.328;2023-04-30T08:54:17;18.60;73.30
70550;DHT22;58101;48.658;2.328;2023-04-30T08:56:46;19.10;72.70
70550;DHT22;58101;48.658;2.328;2023-04-30T08:59:13;19.70;69.00
70550;DHT22;58101;48.658;2.328;2023-04-30T09:01:39;20.50;61.40
70550;DHT22;58101;48.658;2.328;2023-04-30T09:07:32;22.90;53.60
70550;DHT22;58101;48.658;2.328;2023-04-30T09:10:21;24.30;48.70
70550;DHT22;58101;48.658;2.328;2023-04-30T09:15:41;25.50;44.30
70550;DHT22;58101;48.658;2.328;2023-04-30T09:18:18;25.20;39.40
70550;DHT22;58101;48.658;2.328;2023-04-30T09:21:00;24.80;41.20
70550;DHT22;58101;48.658;2.328;2023-04-30T09:23:28;25.30;41.60
70550;DHT22;58101;48.658;2.328;2023-04-30T09:25:58;25.90;40.90
70550;DHT22;58101;48.658;2.328;2023-04-30T09:28:25;26.40;40.20
70550;DHT22;58101;48.658;2.328;2023-04-30T09:30:55;27.00;39.20
70550;DHT22;58101;48.658;2.328;2023-04-30T09:33:22;27.60;37.70
70550;DHT22;58101;48.658;2.328;2023-04-30T09:35:48;28.20;36.60
70550;DHT22;58101;48.658;2.328;2023-04-30T09:38:29;28.70;35.30
70550;DHT22;58101;48.658;2.328;2023-04-30T09:40:57;29.10;34.10
70550;DHT22;58101;48.658;2.328;2023-04-30T09:43:32;29.00;31.40
70550;DHT22;58101;48.658;2.328;2023-04-30T09:45:58;28.60;33.20
70550;DHT22;58101;48.658;2.328;2023-04-30T09:48:25;28.40;34.20
70550;DHT22;58101;48.658;2.328;2023-04-30T09:54:06;28.00;33.70
70550;DHT22;58101;48.658;2.328;2023-04-30T09:56:35;28.20;33.90
70550;DHT22;58101;48.658;2.328;2023-04-30T09:59:07;28.60;33.70
70550;DHT22;58101;48.658;2.328;2023-04-30T10:01:34;29.00;32.70
70550;DHT22;58101;48.658;2.328;2023-04-30T10:04:02;29.10;32.60
70550;DHT22;58101;48.658;2.328;2023-04-30T10:06:29;28.50;32.20
70550;DHT22;58101;48.658;2.328;2023-04-30T10:09:01;27.80;33.80
70550;DHT22;58101;48.658;2.328;2023-04-30T10:11:40;27.40;34.40
70550;DHT22;58101;48.658;2.328;2023-04-30T10:14:11;26.90;34.40
70550;DHT22;58101;48.658;2.328;2023-04-30T10:16:58;26.50;35.40
70550;DHT22;58101;48.658;2.328;2023-04-30T10:19:30;26.30;36.80
70550;DHT22;58101;48.658;2.328;2023-04-30T10:22:03;26.50;37.80
70550;DHT22;58101;48.658;2.328;2023-04-30T10:24:29;26.60;36.90
70550;DHT22;58101;48.658;2.328;2023-04-30T10:26:58;26.80;36.40
70550;DHT22;58101;48.658;2.328;2023-04-30T10:29:24;26.70;36.70
70550;DHT22;58101;48.658;2.328;2023-04-30T10:31:54;26.10;36.40
70550;DHT22;58101;48.658;2.328;2023-04-30T10:37:39;25.40;38.70
70550;DHT22;58101;48.658;2.328;2023-04-30T10:40:08;25.30;38.50
70550;DHT22;58101;48.658;2.328;2023-04-30T10:42:35;25.60;40.00
70550;DHT22;58101;48.658;2.328;2023-04-30T10:45:04;26.10;37.90
70550;DHT22;58101;48.658;2.328;2023-04-30T10:48:13;26.40;36.90
70550;DHT22;58101;48.658;2.328;2023-04-30T10:50:55;26.80;35.60
70550;DHT22;58101;48.658;2.328;2023-04-30T10:53:35;27.00;35.90
70550;DHT22;58101;48.658;2.328;2023-04-30T10:59:30;26.70;37.30
70550;DHT22;58101;48.658;2.328;2023-04-30T11:02:00;27.30;35.20
70550;DHT22;58101;48.658;2.328;2023-04-30T11:04:29;27.10;34.30
70550;DHT22;58101;48.658;2.328;2023-04-30T11:07:01;26.40;34.70
70550;DHT22;58101;48.658;2.328;2023-04-30T11:09:45;25.60;36.80
70550;DHT22;58101;48.658;2.328;2023-04-30T11:12:19;25.00;39.30
70550;DHT22;58101;48.658;2.328;2023-04-30T11:15:06;24.70;39.00
70550;DHT22;58101;48.658;2.328;2023-04-30T11:17:32;24.30;38.90
70550;DHT22;58101;48.658;2.328;2023-04-30T11:19:59;23.90;41.40
70550;DHT22;58101;48.658;2.328;2023-04-30T11:22:28;23.80;42.00
70550;DHT22;58101;48.658;2.328;2023-04-30T11:25:13;24.10;42.40
70550;DHT22;58101;48.658;2.328;2023-04-30T11:27:43;24.60;41.30
70550;DHT22;58101;48.658;2.328;2023-04-30T11:30:14;25.00;39.40
70550;DHT22;58101;48.658;2.328;2023-04-30T11:32:48;25.00;37.70
70550;DHT22;58101;48.658;2.328;2023-04-30T11:35:18;24.50;37.80
70550;DHT22;58101;48.658;2.328;2023-04-30T11:37:47;24.00;40.10
70550;DHT22;58101;48.658;2.328;2023-04-30T11:40:21;23.60;40.10
70550;DHT22;58101;48.658;2.328;2023-04-30T11:42:54;23.30;41.30
70550;DHT22;58101;48.658;2.328;2023-04-30T11:48:23;22.60;41.60
70550;DHT22;58101;48.658;2.328;2023-04-30T11:50:49;22.50;43.30
70550;DHT22;58101;48.658;2.328;2023-04-30T11:53:15;22.60;44.60
70550;DHT22;58101;48.658;2.328;2023-04-30T11:55:41;22.80;42.60
70550;DHT22;58101;48.658;2.328;2023-04-30T11:58:08;23.00;43.40
70550;DHT22;58101;48.658;2.328;2023-04-30T12:00:35;23.30;44.00
70550;DHT22;58101;48.658;2.328;2023-04-30T12:03:15;23.60;41.50
70550;DHT22;58101;48.658;2.328;2023-04-30T12:05:45;23.60;42.10
70550;DHT22;58101;48.658;2.328;2023-04-30T12:08:11;23.70;41.80
70550;DHT22;58101;48.658;2.328;2023-04-30T12:10:37;23.70;40.30
70550;DHT22;58101;48.658;2.328;2023-04-30T12:13:06;23.60;40.00
70550;DHT22;58101;48.658;2.328;2023-04-30T12:15:31;23.60;41.60
70550;DHT22;58101;48.658;2.328;2023-04-30T12:17:58;23.40;40.50
70550;DHT22;58101;48.658;2.328;2023-04-30T12:20:26;23.00;42.60
70550;DHT22;58101;48.658;2.328;2023-04-30T12:22:52;22.70;42.50
70550;DHT22;58101;48.658;2.328;2023-04-30T12:25:19;22.40;43.40
70550;DHT22;58101;48.658;2.328;2023-04-30T12:27:46;22.10;43.00
70550;DHT22;58101;48.658;2.328;2023-04-30T12:30:12;21.80;45.90
70550;DHT22;58101;48.658;2.328;2023-04-30T12:32:45;21.70;45.20
70550;DHT22;58101;48.658;2.328;2023-04-30T12:35:29;21.50;45.70
70550;DHT22;58101;48.658;2.328;2023-04-30T12:38:05;21.40;47.60
70550;DHT22;58101;48.658;2.328;2023-04-30T12:40:33;21.40;47.70
70550;DHT22;58101;48.658;2.328;2023-04-30T12:43:06;21.40;47.90
70550;DHT22;58101;48.658;2.328;2023-04-30T12:45:51;21.50;47.50
70550;DHT22;58101;48.658;2.328;2023-04-30T12:48:17;21.50;47.30
70550;DHT22;58101;48.658;2.328;2023-04-30T12:51:08;21.60;46.00
70550;DHT22;58101;48.658;2.328;2023-04-30T12:53:44;21.60;45.50
70550;DHT22;58101;48.658;2.328;2023-04-30T12:56:14;21.60;43.90
70550;DHT22;58101;48.658;2.328;2023-04-30T12:58:45;21.50;44.70
70550;DHT22;58101;48.658;2.328;2023-04-30T13:01:14;21.60;46.00
70550;DHT22;58101;48.658;2.328;2023-04-30T13:03:42;21.80;46.00
70550;DHT22;58101;48.658;2.328;2023-04-30T13:06:08;21.70;45.10
70550;DHT22;58101;48.658;2.328;2023-04-30T13:08:35;21.80;45.60
70550;DHT22;58101;48.658;2.328;2023-04-30T13:11:00;21.80;45.50
70550;DHT22;58101;48.658;2.328;2023-04-30T13:13:26;21.90;45.00
70550;DHT22;58101;48.658;2.328;2023-04-30T13:15:52;21.90;46.50
70550;DHT22;58101;48.658;2.328;2023-04-30T13:18:18;22.00;46.60
70550;DHT22;58101;48.658;2.328;2023-04-30T15:48:06;18.90;54.20
70550;DHT22;58101;48.658;2.328;2023-04-30T15:50:31;18.80;53.20
70550;DHT22;58101;48.658;2.328;2023-04-30T15:52:58;18.70;54.40
70550;DHT22;58101;48.658;2.328;2023-04-30T15:55:24;18.70;55.30
70550;DHT22;58101;48.658;2.328;2023-04-30T15:57:50;18.70;54.90
70550;DHT22;58101;48.658;2.328;2023-04-30T16:00:16;18.70;55.10
70550;DHT22;58101;48.658;2.328;2023-04-30T16:02:42;18.60;53.10
70550;DHT22;58101;48.658;2.328;2023-04-30T16:05:08;18.70;52.80
70550;DHT22;58101;48.658;2.328;2023-04-30T16:07:35;18.70;52.50
70550;DHT22;58101;48.658;2.328;2023-04-30T16:10:01;18.70;53.30
70550;DHT22;58101;48.658;2.328;2023-04-30T16:12:27;18.70;52.20
70550;DHT22;58101;48.658;2.328;2023-04-30T16:14:53;18.70;53.60
70550;DHT22;58101;48.658;2.328;2023-04-30T16:17:19;18.70;54.80
70550;DHT22;58101;48.658;2.328;2023-04-30T16:19:45;18.70;55.60
70550;DHT22;58101;48.658;2.328;2023-04-30T16:22:11;18.60;56.20
70550;DHT22;58101;48.658;2.328;2023-04-30T16:24:43;18.60;57.00
70550;DHT22;58101;48.658;2.328;2023-04-30T16:27:09;18.50;56.10
70550;DHT22;58101;48.658;2.328;2023-04-30T16:29:37;18.60;54.80
70550;DHT22;58101;48.658;2.328;2023-04-30T16:32:03;18.50;55.00
70550;DHT22;58101;48.658;2.328;2023-04-30T16:34:29;18.50;54.10
70550;DHT22;58101;48.658;2.328;2023-04-30T16:36:55;18.50;53.60
70550;DHT22;58101;48.658;2.328;2023-04-30T16:39:20;18.50;52.80
70550;DHT22;58101;48.658;2.328;2023-04-30T16:44:21;18.50;57.10
70550;DHT22;58101;48.658;2.328;2023-04-30T16:46:47;18.40;55.60
70550;DHT22;58101;48.658;2.328;2023-04-30T16:49:13;18.30;54.70
70550;DHT22;58101;48.658;2.328;2023-04-30T16:51:39;18.50;54.10
70550;DHT22;58101;48.658;2.328;2023-04-30T16:54:05;18.60;53.90
70550;DHT22;58101;48.658;2.328;2023-04-30T16:59:54;18.60;52.60
70550;DHT22;58101;48.658;2.328;2023-04-30T17:02:20;18.70;52.30
70550;DHT22;58101;48.658;2.328;2023-04-30T17:04:45;18.70;53.10
70550;DHT22;58101;48.658;2.328;2023-04-30T17:07:11;18.70;53.20
70550;DHT22;58101;48.658;2.328;2023-04-30T17:09:37;18.70;52.90
70550;DHT22;58101;48.658;2.328;2023-04-30T17:12:03;18.70;53.70
70550;DHT22;58101;48.658;2.328;2023-04-30T17:14:57;18.70;53.50
70550;DHT22;58101;48.658;2.328;2023-04-30T17:17:25;18.70;53.10
70550;DHT22;58101;48.658;2.328;2023-04-30T17:19:51;18.50;52.00
70550;DHT22;58101;48.658;2.328;2023-04-30T17:22:17;18.60;53.30
70550;DHT22;58101;48.658;2.328;2023-04-30T17:24:45;18.50;53.70
70550;DHT22;58101;48.658;2.328;2023-04-30T17:27:13;18.50;53.20
70550;DHT22;58101;48.658;2.328;2023-04-30T17:29:39;18.50;54.70
70550;DHT22;58101;48.658;2.328;2023-04-30T17:32:05;18.40;54.40
70550;DHT22;58101;48.658;2.328;2023-04-30T17:34:31;18.40;53.80
70550;DHT22;58101;48.658;2.328;2023-04-30T17:36:56;18.40;55.10
70550;DHT22;58101;48.658;2.328;2023-04-30T17:39:23;18.30;55.20
70550;DHT22;58101;48.658;2.328;2023-04-30T17:41:48;18.30;56.30
70550;DHT22;58101;48.658;2.328;2023-04-30T17:44:17;18.20;56.30
70550;DHT22;58101;48.658;2.328;2023-04-30T17:46:44;18.20;55.90
70550;DHT22;58101;48.658;2.328;2023-04-30T17:49:09;18.00;55.80
70550;DHT22;58101;48.658;2.328;2023-04-30T17:51:38;18.00;56.10
70550;DHT22;58101;48.658;2.328;2023-04-30T17:54:04;17.90;56.30
70550;DHT22;58101;48.658;2.328;2023-04-30T17:56:30;17.90;56.60
70550;DHT22;58101;48.658;2.328;2023-04-30T17:58:56;17.80;56.50
70550;DHT22;58101;48.658;2.328;2023-04-30T18:01:22;17.80;56.10
70550;DHT22;58101;48.658;2.328;2023-04-30T18:03:49;17.80;56.50
70550;DHT22;58101;48.658;2.328;2023-04-30T18:06:14;17.70;56.20
70550;DHT22;58101;48.658;2.328;2023-04-30T18:08:40;17.70;56.80
70550;DHT22;58101;48.658;2.328;2023-04-30T18:11:06;17.60;56.50
70550;DHT22;58101;48.658;2.328;2023-04-30T18:13:33;17.60;58.20
70550;DHT22;58101;48.658;2.328;2023-04-30T18:15:59;17.60;58.70
70550;DHT22;58101;48.658;2.328;2023-04-30T18:18:24;17.50;59.00
70550;DHT22;58101;48.658;2.328;2023-04-30T18:20:50;17.50;59.50
70550;DHT22;58101;48.658;2.328;2023-04-30T18:23:16;17.50;58.00
70550;DHT22;58101;48.658;2.328;2023-04-30T18:25:42;17.40;57.80
70550;DHT22;58101;48.658;2.328;2023-04-30T18:28:08;17.40;58.20
70550;DHT22;58101;48.658;2.328;2023-04-30T18:30:34;17.30;57.90
70550;DHT22;58101;48.658;2.328;2023-04-30T18:33:02;17.20;57.80
70550;DHT22;58101;48.658;2.328;2023-04-30T18:35:29;17.20;57.90
70550;DHT22;58101;48.658;2.328;2023-04-30T18:37:55;17.20;58.20
70550;DHT22;58101;48.658;2.328;2023-04-30T18:40:22;17.10;57.90
70550;DHT22;58101;48.658;2.328;2023-04-30T18:42:48;17.10;57.90
70550;DHT22;58101;48.658;2.328;2023-04-30T18:45:13;17.10;58.80
70550;DHT22;58101;48.658;2.328;2023-04-30T18:47:40;17.00;59.70
70550;DHT22;58101;48.658;2.328;2023-04-30T18:50:09;17.00;59.50